West Chesterfield, New Hampshire
Current Conditions -  °F | °C
As of 6:52 PM on Thursday 27 Nov 2014 (Local Time) from KORE Reporting Station
NA  
Wind Chill: 29°   Ceiling: NA
Heat Index: 29°   Visibility: 10mi
Dew Point: 26°   Wind: 0mph
Humidity: 89%   Direction: NA
Pressure: 29.99"   Gusts: NA
Location:  42.9°N, 72.52°W
Report Text: KORE 272352Z AUTO 00000KT 10SM M02/M03 A2999 RMK AO2 SLPNO T10171033 51009 $
Loading
Personal Weather Stations






























Interactive Weather Map New forecast layout! Learn more

10-Day Weather Forecast

Advertisements
Track Severe Weather on mobile